sensor_id;sensor_type;location;lat;lon;timestamp;pressure;altitude;pressure_sealevel;temperature;humidity
80570;BME280;69923;50.828;4.400;2023-05-07T00:00:11;101011.75;;;14.94;77.21
80570;BME280;69923;50.828;4.400;2023-05-07T00:02:41;101008.38;;;14.90;77.23
80570;BME280;69923;50.828;4.400;2023-05-07T00:05:07;101013.66;;;14.92;77.24
80570;BME280;69923;50.828;4.400;2023-05-07T00:07:34;101009.25;;;14.91;77.16
80570;BME280;69923;50.828;4.400;2023-05-07T00:10:00;101010.47;;;14.87;77.45
80570;BME280;69923;50.828;4.400;2023-05-07T00:12:26;101003.66;;;14.94;76.69
80570;BME280;69923;50.828;4.400;2023-05-07T00:14:52;101004.97;;;14.88;77.22
80570;BME280;69923;50.828;4.400;2023-05-07T00:17:18;100992.78;;;14.82;76.67
80570;BME280;69923;50.828;4.400;2023-05-07T00:19:44;100993.56;;;14.85;76.58
80570;BME280;69923;50.828;4.400;2023-05-07T00:22:11;100990.88;;;14.85;76.23
80570;BME280;69923;50.828;4.400;2023-05-07T00:24:37;100984.31;;;14.76;76.78
80570;BME280;69923;50.828;4.400;2023-05-07T00:27:03;100987.41;;;14.82;76.27
80570;BME280;69923;50.828;4.400;2023-05-07T00:29:29;100980.00;;;14.73;77.05
80570;BME280;69923;50.828;4.400;2023-05-07T00:31:55;100982.28;;;14.79;76.65
80570;BME280;69923;50.828;4.400;2023-05-07T00:34:21;100981.50;;;14.77;76.49
80570;BME280;69923;50.828;4.400;2023-05-07T00:36:48;100978.06;;;14.75;76.53
80570;BME280;69923;50.828;4.400;2023-05-07T00:39:14;100978.06;;;14.75;76.10
80570;BME280;69923;50.828;4.400;2023-05-07T00:41:40;100983.44;;;14.75;76.21
80570;BME280;69923;50.828;4.400;2023-05-07T00:44:06;100977.84;;;14.78;77.45
80570;BME280;69923;50.828;4.400;2023-05-07T00:46:33;100971.59;;;14.78;76.04
80570;BME280;69923;50.828;4.400;2023-05-07T00:49:00;100977.84;;;14.78;75.87
80570;BME280;69923;50.828;4.400;2023-05-07T00:51:27;100976.88;;;14.79;76.49
80570;BME280;69923;50.828;4.400;2023-05-07T00:53:53;100976.13;;;14.77;76.41
80570;BME280;69923;50.828;4.400;2023-05-07T00:56:21;100970.75;;;14.77;75.52
80570;BME280;69923;50.828;4.400;2023-05-07T00:58:48;100967.84;;;14.80;75.32
80570;BME280;69923;50.828;4.400;2023-05-07T01:01:14;100964.44;;;14.90;75.43
80570;BME280;69923;50.828;4.400;2023-05-07T01:03:44;100960.78;;;14.91;75.28
80570;BME280;69923;50.828;4.400;2023-05-07T01:06:11;100955.97;;;14.83;75.54
80570;BME280;69923;50.828;4.400;2023-05-07T01:08:39;100955.09;;;14.82;75.71
80570;BME280;69923;50.828;4.400;2023-05-07T01:11:07;100957.94;;;14.81;75.70
80570;BME280;69923;50.828;4.400;2023-05-07T01:13:35;100950.47;;;14.85;75.68
80570;BME280;69923;50.828;4.400;2023-05-07T01:16:03;100950.47;;;14.85;75.81
80570;BME280;69923;50.828;4.400;2023-05-07T01:18:29;100950.69;;;14.81;76.33
80570;BME280;69923;50.828;4.400;2023-05-07T01:20:58;100951.44;;;14.84;76.24
80570;BME280;69923;50.828;4.400;2023-05-07T01:23:26;100951.16;;;14.75;76.86
80570;BME280;69923;50.828;4.400;2023-05-07T01:25:54;100943.72;;;14.79;76.33
80570;BME280;69923;50.828;4.400;2023-05-07T01:28:20;100946.41;;;14.79;76.24
80570;BME280;69923;50.828;4.400;2023-05-07T01:31:01;100947.50;;;14.76;76.73
80570;BME280;69923;50.828;4.400;2023-05-07T01:33:31;100943.81;;;14.77;76.98
80570;BME280;69923;50.828;4.400;2023-05-07T01:35:59;100949.41;;;14.74;76.98
80570;BME280;69923;50.828;4.400;2023-05-07T01:38:28;100943.63;;;14.68;77.44
80570;BME280;69923;50.828;4.400;2023-05-07T01:40:56;100946.53;;;14.65;77.45
80570;BME280;69923;50.828;4.400;2023-05-07T01:43:22;100952.66;;;14.67;78.24
80570;BME280;69923;50.828;4.400;2023-05-07T01:45:48;100947.19;;;14.68;77.43
80570;BME280;69923;50.828;4.400;2023-05-07T01:48:15;100945.47;;;14.67;77.74
80570;BME280;69923;50.828;4.400;2023-05-07T01:50:42;100950.63;;;14.70;77.58
80570;BME280;69923;50.828;4.400;2023-05-07T01:53:09;100955.47;;;14.65;77.21
80570;BME280;69923;50.828;4.400;2023-05-07T01:55:35;100954.00;;;14.61;77.33
80570;BME280;69923;50.828;4.400;2023-05-07T01:58:03;100949.47;;;14.62;77.00
80570;BME280;69923;50.828;4.400;2023-05-07T02:00:29;100948.81;;;14.58;77.44
80570;BME280;69923;50.828;4.400;2023-05-07T02:02:55;100955.31;;;14.56;77.38
80570;BME280;69923;50.828;4.400;2023-05-07T02:05:21;100958.09;;;14.54;77.39
80570;BME280;69923;50.828;4.400;2023-05-07T02:07:47;100962.28;;;14.58;77.70
80570;BME280;69923;50.828;4.400;2023-05-07T02:10:13;100960.13;;;14.63;77.60
80570;BME280;69923;50.828;4.400;2023-05-07T02:12:40;100957.84;;;14.57;77.38
80570;BME280;69923;50.828;4.400;2023-05-07T02:15:06;100959.81;;;14.55;77.36
80570;BME280;69923;50.828;4.400;2023-05-07T02:17:32;100959.81;;;14.55;76.60
80570;BME280;69923;50.828;4.400;2023-05-07T02:19:59;100956.13;;;14.56;76.95
80570;BME280;69923;50.828;4.400;2023-05-07T02:22:25;100956.56;;;14.50;77.90
80570;BME280;69923;50.828;4.400;2023-05-07T02:24:52;100957.53;;;14.49;78.17
80570;BME280;69923;50.828;4.400;2023-05-07T02:27:18;100959.94;;;14.41;78.42
80570;BME280;69923;50.828;4.400;2023-05-07T02:29:44;100959.69;;;14.31;78.84
80570;BME280;69923;50.828;4.400;2023-05-07T02:32:10;100958.84;;;14.31;78.55
80570;BME280;69923;50.828;4.400;2023-05-07T02:34:36;100960.78;;;14.29;79.16
80570;BME280;69923;50.828;4.400;2023-05-07T02:37:02;100959.34;;;14.23;79.20
80570;BME280;69923;50.828;4.400;2023-05-07T02:39:28;100962.72;;;14.14;79.41
80570;BME280;69923;50.828;4.400;2023-05-07T02:41:54;100957.44;;;14.13;79.98
80570;BME280;69923;50.828;4.400;2023-05-07T02:44:20;100965.91;;;14.06;79.96
80570;BME280;69923;50.828;4.400;2023-05-07T02:46:47;100958.84;;;14.05;79.85
80570;BME280;69923;50.828;4.400;2023-05-07T02:49:13;100960.44;;;14.08;80.20
80570;BME280;69923;50.828;4.400;2023-05-07T02:51:39;100961.53;;;14.05;79.90
80570;BME280;69923;50.828;4.400;2023-05-07T02:54:05;100962.50;;;14.04;80.28
80570;BME280;69923;50.828;4.400;2023-05-07T02:56:31;100964.00;;;14.09;80.02
80570;BME280;69923;50.828;4.400;2023-05-07T02:58:57;100962.38;;;14.06;80.21
80570;BME280;69923;50.828;4.400;2023-05-07T03:01:24;100967.66;;;14.07;80.07
80570;BME280;69923;50.828;4.400;2023-05-07T03:03:50;100969.06;;;14.13;80.10
80570;BME280;69923;50.828;4.400;2023-05-07T03:06:16;100966.47;;;14.12;80.02
80570;BME280;69923;50.828;4.400;2023-05-07T03:08:42;100973.59;;;14.13;80.23
80570;BME280;69923;50.828;4.400;2023-05-07T03:11:09;100961.19;;;14.10;80.58
80570;BME280;69923;50.828;4.400;2023-05-07T03:13:35;100969.94;;;14.14;80.34
80570;BME280;69923;50.828;4.400;2023-05-07T03:16:01;100967.97;;;14.16;80.26
80570;BME280;69923;50.828;4.400;2023-05-07T03:18:27;100966.38;;;14.13;80.21
80570;BME280;69923;50.828;4.400;2023-05-07T03:20:53;100970.34;;;14.07;80.70
80570;BME280;69923;50.828;4.400;2023-05-07T03:23:19;100970.78;;;14.01;80.90
80570;BME280;69923;50.828;4.400;2023-05-07T03:25:45;100969.03;;;14.00;80.82
80570;BME280;69923;50.828;4.400;2023-05-07T03:28:12;100975.28;;;14.01;80.78
80570;BME280;69923;50.828;4.400;2023-05-07T03:30:38;100977.00;;;14.02;80.86
80570;BME280;69923;50.828;4.400;2023-05-07T03:33:04;100979.59;;;14.03;80.54
80570;BME280;69923;50.828;4.400;2023-05-07T03:35:30;100975.19;;;14.02;80.78
80570;BME280;69923;50.828;4.400;2023-05-07T03:37:56;100979.59;;;14.03;80.82
80570;BME280;69923;50.828;4.400;2023-05-07T03:40:22;100979.50;;;14.05;81.33
80570;BME280;69923;50.828;4.400;2023-05-07T03:42:48;100974.84;;;14.07;80.78
80570;BME280;69923;50.828;4.400;2023-05-07T03:45:15;100974.00;;;14.06;81.06
80570;BME280;69923;50.828;4.400;2023-05-07T03:47:41;100974.97;;;14.05;80.79
80570;BME280;69923;50.828;4.400;2023-05-07T03:50:07;100967.25;;;14.14;80.15
80570;BME280;69923;50.828;4.400;2023-05-07T03:52:33;100973.47;;;14.14;80.38
80570;BME280;69923;50.828;4.400;2023-05-07T03:55:00;100971.63;;;14.15;80.25
80570;BME280;69923;50.828;4.400;2023-05-07T03:57:26;100964.00;;;14.09;80.22
80570;BME280;69923;50.828;4.400;2023-05-07T03:59:52;100975.72;;;14.07;80.55
80570;BME280;69923;50.828;4.400;2023-05-07T04:02:18;100972.72;;;14.12;80.54
80570;BME280;69923;50.828;4.400;2023-05-07T04:04:44;100968.84;;;14.16;80.53
80570;BME280;69923;50.828;4.400;2023-05-07T04:07:10;100974.53;;;14.12;80.86
80570;BME280;69923;50.828;4.400;2023-05-07T04:09:36;100972.72;;;14.12;80.81
80570;BME280;69923;50.828;4.400;2023-05-07T04:12:03;100972.81;;;14.11;80.72
80570;BME280;69923;50.828;4.400;2023-05-07T04:14:29;100962.25;;;14.07;80.70
80570;BME280;69923;50.828;4.400;2023-05-07T04:16:58;100972.28;;;14.05;80.42
80570;BME280;69923;50.828;4.400;2023-05-07T04:19:25;100972.28;;;14.05;81.13
80570;BME280;69923;50.828;4.400;2023-05-07T04:21:51;100959.38;;;14.11;80.74
80570;BME280;69923;50.828;4.400;2023-05-07T04:24:17;100959.38;;;14.11;80.44
80570;BME280;69923;50.828;4.400;2023-05-07T04:26:43;100954.75;;;14.13;80.26
80570;BME280;69923;50.828;4.400;2023-05-07T04:29:09;100959.91;;;14.16;80.00
80570;BME280;69923;50.828;4.400;2023-05-07T04:31:36;100964.75;;;14.11;79.84
80570;BME280;69923;50.828;4.400;2023-05-07T04:34:02;100966.47;;;14.12;79.36
80570;BME280;69923;50.828;4.400;2023-05-07T04:36:28;100964.41;;;14.15;78.78
80570;BME280;69923;50.828;4.400;2023-05-07T04:38:54;100966.25;;;14.15;78.85
80570;BME280;69923;50.828;4.400;2023-05-07T04:41:21;100963.56;;;14.15;79.63
80570;BME280;69923;50.828;4.400;2023-05-07T04:43:47;100965.50;;;14.13;80.51
80570;BME280;69923;50.828;4.400;2023-05-07T04:46:13;100963.69;;;14.13;80.45
80570;BME280;69923;50.828;4.400;2023-05-07T04:48:39;100972.72;;;14.12;80.47
80570;BME280;69923;50.828;4.400;2023-05-07T04:51:05;100976.56;;;14.08;80.38
80570;BME280;69923;50.828;4.400;2023-05-07T04:53:32;100969.06;;;14.13;79.70
80570;BME280;69923;50.828;4.400;2023-05-07T04:55:58;100974.97;;;14.18;79.82
80570;BME280;69923;50.828;4.400;2023-05-07T04:58:24;100978.31;;;14.22;80.08
80570;BME280;69923;50.828;4.400;2023-05-07T05:00:51;100976.25;;;14.25;79.62
80570;BME280;69923;50.828;4.400;2023-05-07T05:03:17;100978.75;;;14.28;79.95
80570;BME280;69923;50.828;4.400;2023-05-07T05:05:44;100977.03;;;14.27;80.46
80570;BME280;69923;50.828;4.400;2023-05-07T05:08:10;100978.66;;;14.30;80.25
80570;BME280;69923;50.828;4.400;2023-05-07T05:10:36;100975.94;;;14.30;80.20
80570;BME280;69923;50.828;4.400;2023-05-07T05:13:02;100978.19;;;14.36;80.34
80570;BME280;69923;50.828;4.400;2023-05-07T05:15:28;100983.94;;;14.44;80.04
80570;BME280;69923;50.828;4.400;2023-05-07T05:17:54;100982.41;;;14.40;80.23
80570;BME280;69923;50.828;4.400;2023-05-07T05:20:20;100983.94;;;14.44;79.88
80570;BME280;69923;50.828;4.400;2023-05-07T05:22:47;100981.66;;;14.51;79.72
80570;BME280;69923;50.828;4.400;2023-05-07T05:25:13;100991.97;;;14.57;79.79
80570;BME280;69923;50.828;4.400;2023-05-07T05:27:39;100993.19;;;14.53;78.67
80570;BME280;69923;50.828;4.400;2023-05-07T05:30:06;100996.09;;;14.62;78.13
80570;BME280;69923;50.828;4.400;2023-05-07T05:32:32;101007.59;;;14.64;78.09
80570;BME280;69923;50.828;4.400;2023-05-07T05:34:58;101004.69;;;14.67;77.91
80570;BME280;69923;50.828;4.400;2023-05-07T05:37:25;101009.53;;;14.62;78.44
80570;BME280;69923;50.828;4.400;2023-05-07T05:39:51;101003.81;;;14.67;78.27
80570;BME280;69923;50.828;4.400;2023-05-07T05:42:18;101018.69;;;14.72;77.87
80570;BME280;69923;50.828;4.400;2023-05-07T05:44:44;101018.53;;;14.74;78.09
80570;BME280;69923;50.828;4.400;2023-05-07T05:47:10;101012.31;;;14.73;78.39
80570;BME280;69923;50.828;4.400;2023-05-07T05:49:36;101017.03;;;14.82;78.13
80570;BME280;69923;50.828;4.400;2023-05-07T05:52:03;101019.31;;;14.89;76.96
80570;BME280;69923;50.828;4.400;2023-05-07T05:54:29;101025.84;;;14.85;77.27
80570;BME280;69923;50.828;4.400;2023-05-07T05:56:55;101027.78;;;14.82;77.43
80570;BME280;69923;50.828;4.400;2023-05-07T05:59:21;101041.16;;;14.84;77.40
80570;BME280;69923;50.828;4.400;2023-05-07T06:01:47;101043.63;;;14.87;77.79
80570;BME280;69923;50.828;4.400;2023-05-07T06:04:14;101054.41;;;14.87;78.88
80570;BME280;69923;50.828;4.400;2023-05-07T06:06:40;101055.03;;;14.91;79.04
80570;BME280;69923;50.828;4.400;2023-05-07T06:09:06;101062.91;;;14.94;75.45
80570;BME280;69923;50.828;4.400;2023-05-07T06:11:32;101064.19;;;15.01;74.18
80570;BME280;69923;50.828;4.400;2023-05-07T06:13:58;101060.06;;;15.08;73.14
80570;BME280;69923;50.828;4.400;2023-05-07T06:16:28;101062.53;;;15.11;73.14
80570;BME280;69923;50.828;4.400;2023-05-07T06:18:54;101062.53;;;15.11;73.01
80570;BME280;69923;50.828;4.400;2023-05-07T06:21:20;101072.75;;;15.18;73.04
80570;BME280;69923;50.828;4.400;2023-05-07T06:23:46;101061.88;;;15.20;73.01
80570;BME280;69923;50.828;4.400;2023-05-07T06:26:12;101065.44;;;15.21;73.24
80570;BME280;69923;50.828;4.400;2023-05-07T06:28:38;101069.31;;;15.16;73.28
80570;BME280;69923;50.828;4.400;2023-05-07T06:31:17;101076.53;;;15.16;73.79
80570;BME280;69923;50.828;4.400;2023-05-07T06:33:45;101070.16;;;15.17;73.75
80570;BME280;69923;50.828;4.400;2023-05-07T06:36:11;101074.50;;;15.19;75.87
80570;BME280;69923;50.828;4.400;2023-05-07T06:38:37;101078.03;;;15.20;74.17
80570;BME280;69923;50.828;4.400;2023-05-07T06:41:03;101077.28;;;15.18;77.20
80570;BME280;69923;50.828;4.400;2023-05-07T06:43:29;101081.06;;;15.15;77.78
80570;BME280;69923;50.828;4.400;2023-05-07T06:45:55;101081.59;;;15.08;80.09
80570;BME280;69923;50.828;4.400;2023-05-07T06:48:21;101083.03;;;15.01;81.73
80570;BME280;69923;50.828;4.400;2023-05-07T06:50:47;101087.03;;;14.95;81.83
80570;BME280;69923;50.828;4.400;2023-05-07T06:53:14;101086.41;;;14.79;83.08
80570;BME280;69923;50.828;4.400;2023-05-07T06:55:40;101094.06;;;14.72;83.62
80570;BME280;69923;50.828;4.400;2023-05-07T06:58:07;101094.69;;;14.63;85.42
80570;BME280;69923;50.828;4.400;2023-05-07T07:00:33;101098.56;;;14.59;85.60
80570;BME280;69923;50.828;4.400;2023-05-07T07:02:59;101099.53;;;14.58;87.01
80570;BME280;69923;50.828;4.400;2023-05-07T07:05:26;101092.84;;;14.51;87.22
80570;BME280;69923;50.828;4.400;2023-05-07T07:07:52;101090.50;;;14.47;87.31
80570;BME280;69923;50.828;4.400;2023-05-07T07:10:22;101099.63;;;14.44;89.36
80570;BME280;69923;50.828;4.400;2023-05-07T07:12:49;101093.44;;;14.29;90.26
80570;BME280;69923;50.828;4.400;2023-05-07T07:15:16;101094.94;;;14.21;91.78
80570;BME280;69923;50.828;4.400;2023-05-07T07:17:42;101096.97;;;14.17;92.27
80570;BME280;69923;50.828;4.400;2023-05-07T07:20:10;101093.22;;;14.20;94.10
80570;BME280;69923;50.828;4.400;2023-05-07T07:22:36;101098.88;;;14.15;95.00
80570;BME280;69923;50.828;4.400;2023-05-07T07:25:02;101090.41;;;14.21;95.23
80570;BME280;69923;50.828;4.400;2023-05-07T07:27:28;101097.63;;;14.21;95.27
80570;BME280;69923;50.828;4.400;2023-05-07T07:29:54;101099.88;;;14.27;95.64
80570;BME280;69923;50.828;4.400;2023-05-07T07:32:20;101105.69;;;14.33;95.52
80570;BME280;69923;50.828;4.400;2023-05-07T07:34:47;101103.38;;;14.41;95.97
80570;BME280;69923;50.828;4.400;2023-05-07T07:37:13;101100.59;;;14.43;95.95
80570;BME280;69923;50.828;4.400;2023-05-07T07:39:39;101100.38;;;14.46;95.79
80570;BME280;69923;50.828;4.400;2023-05-07T07:42:05;101099.28;;;14.49;95.86
80570;BME280;69923;50.828;4.400;2023-05-07T07:44:31;101100.31;;;14.33;96.16
80570;BME280;69923;50.828;4.400;2023-05-07T07:46:57;101106.38;;;14.37;96.19
80570;BME280;69923;50.828;4.400;2023-05-07T07:49:23;101107.34;;;14.36;96.08
80570;BME280;69923;50.828;4.400;2023-05-07T07:51:50;101111.25;;;14.45;96.31
80570;BME280;69923;50.828;4.400;2023-05-07T07:54:16;101111.75;;;14.37;96.09
80570;BME280;69923;50.828;4.400;2023-05-07T07:56:43;101109.00;;;14.51;96.14
80570;BME280;69923;50.828;4.400;2023-05-07T07:59:09;101111.69;;;14.38;95.77
80570;BME280;69923;50.828;4.400;2023-05-07T08:01:35;101117.19;;;14.23;96.01
80570;BME280;69923;50.828;4.400;2023-05-07T08:04:01;101110.13;;;14.34;96.39
80570;BME280;69923;50.828;4.400;2023-05-07T08:06:29;101114.31;;;14.26;96.70
80570;BME280;69923;50.828;4.400;2023-05-07T08:08:55;101118.56;;;14.42;96.70
80570;BME280;69923;50.828;4.400;2023-05-07T08:11:22;101123.50;;;14.49;96.62
80570;BME280;69923;50.828;4.400;2023-05-07T08:13:48;101124.06;;;14.54;96.94
80570;BME280;69923;50.828;4.400;2023-05-07T08:16:14;101128.59;;;14.53;96.76
80570;BME280;69923;50.828;4.400;2023-05-07T08:18:41;101130.09;;;14.57;96.90
80570;BME280;69923;50.828;4.400;2023-05-07T08:21:07;101133.88;;;14.67;96.88
80570;BME280;69923;50.828;4.400;2023-05-07T08:23:33;101134.72;;;14.68;97.03
80570;BME280;69923;50.828;4.400;2023-05-07T08:26:00;101132.38;;;14.63;97.02
80570;BME280;69923;50.828;4.400;2023-05-07T08:28:26;101140.00;;;14.69;97.15
80570;BME280;69923;50.828;4.400;2023-05-07T08:30:52;101138.09;;;14.71;97.23
80570;BME280;69923;50.828;4.400;2023-05-07T08:33:19;101149.69;;;14.59;97.25
80570;BME280;69923;50.828;4.400;2023-05-07T08:35:45;101161.75;;;14.66;97.23
80570;BME280;69923;50.828;4.400;2023-05-07T08:38:11;101155.00;;;14.86;97.17
80570;BME280;69923;50.828;4.400;2023-05-07T08:40:39;101156.72;;;15.12;97.30
80570;BME280;69923;50.828;4.400;2023-05-07T08:43:07;101151.94;;;15.29;97.24
80570;BME280;69923;50.828;4.400;2023-05-07T08:45:34;101160.78;;;15.18;97.47
80570;BME280;69923;50.828;4.400;2023-05-07T08:48:02;101159.19;;;15.28;97.24
80570;BME280;69923;50.828;4.400;2023-05-07T08:50:29;101160.03;;;15.16;97.47
80570;BME280;69923;50.828;4.400;2023-05-07T08:52:56;101163.28;;;15.08;97.48
80570;BME280;69923;50.828;4.400;2023-05-07T08:55:23;101161.34;;;15.10;97.40
80570;BME280;69923;50.828;4.400;2023-05-07T08:57:51;101154.88;;;15.00;97.62
80570;BME280;69923;50.828;4.400;2023-05-07T09:00:18;101154.88;;;15.00;97.49
80570;BME280;69923;50.828;4.400;2023-05-07T09:02:45;101153.38;;;14.96;97.63
80570;BME280;69923;50.828;4.400;2023-05-07T09:05:11;101158.00;;;15.07;97.63
80570;BME280;69923;50.828;4.400;2023-05-07T09:07:37;101152.06;;;15.02;97.45
80570;BME280;69923;50.828;4.400;2023-05-07T09:10:04;101153.16;;;14.99;97.79
80570;BME280;69923;50.828;4.400;2023-05-07T09:12:31;101169.41;;;15.23;97.49
80570;BME280;69923;50.828;4.400;2023-05-07T09:14:58;101162.72;;;15.29;97.59
80570;BME280;69923;50.828;4.400;2023-05-07T09:17:24;101168.88;;;15.18;97.75
80570;BME280;69923;50.828;4.400;2023-05-07T09:19:50;101158.28;;;15.40;97.74
80570;BME280;69923;50.828;4.400;2023-05-07T09:22:17;101166.59;;;15.25;97.72
80570;BME280;69923;50.828;4.400;2023-05-07T09:24:50;101177.19;;;15.77;97.30
80570;BME280;69923;50.828;4.400;2023-05-07T09:27:18;101172.47;;;15.68;97.39
80570;BME280;69923;50.828;4.400;2023-05-07T09:29:44;101174.00;;;16.19;97.10
80570;BME280;69923;50.828;4.400;2023-05-07T09:32:10;101180.66;;;16.03;97.39
80570;BME280;69923;50.828;4.400;2023-05-07T09:34:37;101181.91;;;15.86;97.45
80570;BME280;69923;50.828;4.400;2023-05-07T09:37:05;101183.84;;;16.20;97.30
80570;BME280;69923;50.828;4.400;2023-05-07T09:42:06;101186.09;;;17.41;96.27
80570;BME280;69923;50.828;4.400;2023-05-07T09:44:34;101187.34;;;17.48;96.15
80570;BME280;69923;50.828;4.400;2023-05-07T09:47:00;101189.59;;;17.65;95.81
80570;BME280;69923;50.828;4.400;2023-05-07T09:49:30;101197.13;;;18.05;95.20
80570;BME280;69923;50.828;4.400;2023-05-07T09:52:00;101194.84;;;17.78;95.68
80570;BME280;69923;50.828;4.400;2023-05-07T09:54:27;101205.25;;;18.48;93.23
80570;BME280;69923;50.828;4.400;2023-05-07T09:56:57;101199.34;;;18.95;91.59
80570;BME280;69923;50.828;4.400;2023-05-07T09:59:24;101200.03;;;19.69;89.37
80570;BME280;69923;50.828;4.400;2023-05-07T10:01:52;101204.44;;;21.16;80.22
80570;BME280;69923;50.828;4.400;2023-05-07T10:04:22;101208.97;;;19.30;82.48
80570;BME280;69923;50.828;4.400;2023-05-07T10:06:49;101204.78;;;16.17;91.98
80570;BME280;69923;50.828;4.400;2023-05-07T10:09:15;101204.56;;;15.96;94.52
80570;BME280;69923;50.828;4.400;2023-05-07T10:11:42;101212.34;;;15.88;94.57
80570;BME280;69923;50.828;4.400;2023-05-07T10:14:09;101213.41;;;15.85;94.49
80570;BME280;69923;50.828;4.400;2023-05-07T10:16:36;101206.41;;;15.83;93.92
80570;BME280;69923;50.828;4.400;2023-05-07T10:19:08;101211.06;;;15.81;94.36
80570;BME280;69923;50.828;4.400;2023-05-07T10:21:37;101212.47;;;15.74;94.46
80570;BME280;69923;50.828;4.400;2023-05-07T10:24:09;101204.72;;;15.69;94.32
80570;BME280;69923;50.828;4.400;2023-05-07T10:26:44;101205.28;;;15.62;94.86
80570;BME280;69923;50.828;4.400;2023-05-07T10:29:25;101212.31;;;15.64;95.35
80570;BME280;69923;50.828;4.400;2023-05-07T10:34:32;101216.47;;;15.68;97.17
80570;BME280;69923;50.828;4.400;2023-05-07T10:37:01;101215.31;;;15.72;97.41
80570;BME280;69923;50.828;4.400;2023-05-07T10:39:28;101216.78;;;15.76;97.43
80570;BME280;69923;50.828;4.400;2023-05-07T10:41:55;101216.78;;;15.89;97.56
80570;BME280;69923;50.828;4.400;2023-05-07T10:44:29;101219.69;;;15.86;97.68
80570;BME280;69923;50.828;4.400;2023-05-07T10:47:15;101225.88;;;15.63;97.61
80570;BME280;69923;50.828;4.400;2023-05-07T10:52:19;101220.25;;;15.78;97.79
80570;BME280;69923;50.828;4.400;2023-05-07T10:54:46;101224.56;;;15.81;97.67
80570;BME280;69923;50.828;4.400;2023-05-07T10:59:57;101218.50;;;15.90;97.79
80570;BME280;69923;50.828;4.400;2023-05-07T11:02:25;101225.16;;;15.97;97.79
80570;BME280;69923;50.828;4.400;2023-05-07T11:07:55;101218.09;;;16.07;97.78
80570;BME280;69923;50.828;4.400;2023-05-07T11:10:22;101223.25;;;16.10;97.64
80570;BME280;69923;50.828;4.400;2023-05-07T11:12:48;101218.06;;;16.20;97.55
80570;BME280;69923;50.828;4.400;2023-05-07T11:15:15;101221.59;;;16.20;97.64
80570;BME280;69923;50.828;4.400;2023-05-07T11:17:59;101222.06;;;16.38;97.70
80570;BME280;69923;50.828;4.400;2023-05-07T11:26:04;101224.34;;;16.55;95.96
80570;BME280;69923;50.828;4.400;2023-05-07T11:28:36;101223.25;;;16.58;95.30
80570;BME280;69923;50.828;4.400;2023-05-07T11:31:02;101220.34;;;16.37;94.60
80570;BME280;69923;50.828;4.400;2023-05-07T11:33:29;101224.81;;;16.25;94.49
80570;BME280;69923;50.828;4.400;2023-05-07T11:35:56;101225.84;;;16.36;95.06
80570;BME280;69923;50.828;4.400;2023-05-07T11:38:23;101224.81;;;16.49;94.92
80570;BME280;69923;50.828;4.400;2023-05-07T11:40:59;101229.81;;;16.66;95.50
80570;BME280;69923;50.828;4.400;2023-05-07T11:43:31;101229.38;;;16.73;93.87
80570;BME280;69923;50.828;4.400;2023-05-07T11:46:11;101232.69;;;16.76;92.70
80570;BME280;69923;50.828;4.400;2023-05-07T11:48:38;101226.94;;;16.92;93.47
80570;BME280;69923;50.828;4.400;2023-05-07T11:51:06;101228.06;;;16.89;92.93
80570;BME280;69923;50.828;4.400;2023-05-07T11:53:39;101236.28;;;16.99;93.04
80570;BME280;69923;50.828;4.400;2023-05-07T11:56:13;101233.88;;;17.07;91.73
80570;BME280;69923;50.828;4.400;2023-05-07T11:58:41;101237.19;;;17.11;89.29
80570;BME280;69923;50.828;4.400;2023-05-07T12:01:12;101229.81;;;17.01;88.30
80570;BME280;69923;50.828;4.400;2023-05-07T12:03:40;101236.09;;;17.13;92.60
80570;BME280;69923;50.828;4.400;2023-05-07T12:06:12;101232.69;;;17.22;93.53
80570;BME280;69923;50.828;4.400;2023-05-07T12:08:40;101230.31;;;17.06;88.59
80570;BME280;69923;50.828;4.400;2023-05-07T12:11:23;101231.78;;;17.11;91.34
80570;BME280;69923;50.828;4.400;2023-05-07T12:13:49;101238.81;;;17.24;92.01
80570;BME280;69923;50.828;4.400;2023-05-07T12:16:16;101240.16;;;17.19;91.26
80570;BME280;69923;50.828;4.400;2023-05-07T12:18:42;101239.16;;;17.08;91.06
80570;BME280;69923;50.828;4.400;2023-05-07T12:21:08;101238.91;;;17.12;91.64
80570;BME280;69923;50.828;4.400;2023-05-07T12:23:37;101237.69;;;17.04;92.79
80570;BME280;69923;50.828;4.400;2023-05-07T12:26:04;101239.16;;;17.08;91.92
80570;BME280;69923;50.828;4.400;2023-05-07T12:28:30;101242.00;;;17.18;92.17
80570;BME280;69923;50.828;4.400;2023-05-07T12:30:57;101242.53;;;17.23;90.70
80570;BME280;69923;50.828;4.400;2023-05-07T12:33:27;101239.16;;;17.08;91.90
80570;BME280;69923;50.828;4.400;2023-05-07T12:35:55;101239.47;;;16.93;90.58
80570;BME280;69923;50.828;4.400;2023-05-07T12:38:22;101243.56;;;16.98;93.11
80570;BME280;69923;50.828;4.400;2023-05-07T12:40:50;101243.09;;;17.04;92.60
80570;BME280;69923;50.828;4.400;2023-05-07T12:43:25;101244.53;;;16.97;90.64
80570;BME280;69923;50.828;4.400;2023-05-07T12:45:54;101249.34;;;17.05;91.55
80570;BME280;69923;50.828;4.400;2023-05-07T12:48:22;101247.63;;;17.04;90.46
80570;BME280;69923;50.828;4.400;2023-05-07T12:50:56;101245.53;;;16.96;89.81
80570;BME280;69923;50.828;4.400;2023-05-07T12:53:24;101247.84;;;16.90;90.65
80570;BME280;69923;50.828;4.400;2023-05-07T12:55:55;101257.56;;;17.03;91.56
80570;BME280;69923;50.828;4.400;2023-05-07T12:58:28;101248.97;;;16.98;90.37
80570;BME280;69923;50.828;4.400;2023-05-07T13:00:56;101249.47;;;17.03;91.24
80570;BME280;69923;50.828;4.400;2023-05-07T13:03:36;101252.91;;;17.05;90.93
80570;BME280;69923;50.828;4.400;2023-05-07T13:06:06;101246.66;;;17.16;91.28
80570;BME280;69923;50.828;4.400;2023-05-07T13:08:38;101259.59;;;17.24;90.65